sensor_id;sensor_type;location;lat;lon;timestamp;pressure;altitude;pressure_sealevel;temperature;humidity
74474;BME280;62922;-6.168;106.796;2023-06-04T00:01:27;101020.22;;;31.47;63.04
74474;BME280;62922;-6.168;106.796;2023-06-04T00:03:53;101027.50;;;31.48;63.08
74474;BME280;62922;-6.168;106.796;2023-06-04T00:06:19;101029.50;;;31.48;63.32
74474;BME280;62922;-6.168;106.796;2023-06-04T00:08:45;101028.69;;;31.47;63.49
74474;BME280;62922;-6.168;106.796;2023-06-04T00:11:11;101040.28;;;31.46;63.91
74474;BME280;62922;-6.168;106.796;2023-06-04T00:13:36;101041.44;;;31.45;63.35
74474;BME280;62922;-6.168;106.796;2023-06-04T00:16:02;101051.56;;;31.46;63.82
74474;BME280;62922;-6.168;106.796;2023-06-04T00:18:28;101048.59;;;31.42;63.63
74474;BME280;62922;-6.168;106.796;2023-06-04T00:20:57;101052.22;;;31.43;63.78
74474;BME280;62922;-6.168;106.796;2023-06-04T00:23:23;101054.69;;;31.44;63.34
74474;BME280;62922;-6.168;106.796;2023-06-04T00:25:49;101059.53;;;31.44;63.68
74474;BME280;62922;-6.168;106.796;2023-06-04T00:28:15;101061.50;;;31.43;63.69
74474;BME280;62922;-6.168;106.796;2023-06-04T00:30:40;101060.69;;;31.43;63.11
74474;BME280;62922;-6.168;106.796;2023-06-04T00:33:06;101053.06;;;31.43;63.63
74474;BME280;62922;-6.168;106.796;2023-06-04T00:35:32;101063.50;;;31.43;63.07
74474;BME280;62922;-6.168;106.796;2023-06-04T00:37:58;101060.69;;;31.43;63.53
74474;BME280;62922;-6.168;106.796;2023-06-04T00:40:27;101065.50;;;31.42;63.59
74474;BME280;62922;-6.168;106.796;2023-06-04T00:42:52;101072.81;;;31.43;63.63
74474;BME280;62922;-6.168;106.796;2023-06-04T00:45:21;101071.97;;;31.43;63.42
74474;BME280;62922;-6.168;106.796;2023-06-04T00:47:51;101073.97;;;31.42;63.83
74474;BME280;62922;-6.168;106.796;2023-06-04T00:50:17;101074.78;;;31.43;63.76
74474;BME280;62922;-6.168;106.796;2023-06-04T00:52:43;101071.16;;;31.42;63.81
74474;BME280;62922;-6.168;106.796;2023-06-04T00:55:12;101077.25;;;31.44;63.62
74474;BME280;62922;-6.168;106.796;2023-06-04T00:57:38;101078.44;;;31.43;63.85
74474;BME280;62922;-6.168;106.796;2023-06-04T01:00:07;101074.44;;;31.44;63.46
74474;BME280;62922;-6.168;106.796;2023-06-04T01:02:37;101068.81;;;31.44;63.43
74474;BME280;62922;-6.168;106.796;2023-06-04T01:07:33;101084.06;;;31.43;63.56
74474;BME280;62922;-6.168;106.796;2023-06-04T01:10:01;101078.09;;;31.45;63.90
74474;BME280;62922;-6.168;106.796;2023-06-04T01:12:27;101071.63;;;31.44;63.91
74474;BME280;62922;-6.168;106.796;2023-06-04T01:14:53;101073.63;;;31.44;63.50
74474;BME280;62922;-6.168;106.796;2023-06-04T01:19:53;101085.41;;;31.46;64.11
74474;BME280;62922;-6.168;106.796;2023-06-04T01:22:30;101074.44;;;31.44;63.94
74474;BME280;62922;-6.168;106.796;2023-06-04T01:24:59;101072.13;;;31.46;63.67
74474;BME280;62922;-6.168;106.796;2023-06-04T01:27:27;101071.31;;;31.46;63.90
74474;BME280;62922;-6.168;106.796;2023-06-04T01:29:54;101065.69;;;31.46;63.81
74474;BME280;62922;-6.168;106.796;2023-06-04T01:32:23;101063.38;;;31.48;64.05
74474;BME280;62922;-6.168;106.796;2023-06-04T01:34:49;101070.97;;;31.47;64.05
74474;BME280;62922;-6.168;106.796;2023-06-04T01:37:15;101061.34;;;31.48;63.65
74474;BME280;62922;-6.168;106.796;2023-06-04T01:39:42;101061.34;;;31.48;63.77
74474;BME280;62922;-6.168;106.796;2023-06-04T01:42:08;101064.16;;;31.48;63.81
74474;BME280;62922;-6.168;106.796;2023-06-04T01:44:34;101065.00;;;31.49;64.13
74474;BME280;62922;-6.168;106.796;2023-06-04T01:47:00;101063.03;;;31.49;64.33
74474;BME280;62922;-6.168;106.796;2023-06-04T01:49:26;101075.13;;;31.50;64.39
74474;BME280;62922;-6.168;106.796;2023-06-04T01:51:52;101064.66;;;31.50;64.03
74474;BME280;62922;-6.168;106.796;2023-06-04T01:54:18;101063.53;;;31.51;64.57
74474;BME280;62922;-6.168;106.796;2023-06-04T01:56:45;101072.78;;;31.52;64.41
74474;BME280;62922;-6.168;106.796;2023-06-04T01:59:14;101069.97;;;31.52;64.33
74474;BME280;62922;-6.168;106.796;2023-06-04T02:01:41;101077.28;;;31.53;64.73
74474;BME280;62922;-6.168;106.796;2023-06-04T02:04:07;101078.13;;;31.53;64.64
74474;BME280;62922;-6.168;106.796;2023-06-04T02:06:33;101070.47;;;31.54;64.00
74474;BME280;62922;-6.168;106.796;2023-06-04T02:08:59;101067.66;;;31.54;64.60
74474;BME280;62922;-6.168;106.796;2023-06-04T02:11:25;101065.34;;;31.56;64.34
74474;BME280;62922;-6.168;106.796;2023-06-04T02:13:51;101062.50;;;31.56;64.51
74474;BME280;62922;-6.168;106.796;2023-06-04T02:16:17;101050.09;;;31.57;64.23
74474;BME280;62922;-6.168;106.796;2023-06-04T02:18:43;101048.06;;;31.57;64.01
74474;BME280;62922;-6.168;106.796;2023-06-04T02:21:09;101061.88;;;31.59;64.39
74474;BME280;62922;-6.168;106.796;2023-06-04T02:23:37;101063.50;;;31.60;64.19
74474;BME280;62922;-6.168;106.796;2023-06-04T02:26:03;101068.81;;;31.61;64.60
74474;BME280;62922;-6.168;106.796;2023-06-04T02:28:29;101058.38;;;31.62;64.30
74474;BME280;62922;-6.168;106.796;2023-06-04T02:30:55;101053.56;;;31.63;64.16
74474;BME280;62922;-6.168;106.796;2023-06-04T02:33:21;101060.84;;;31.63;64.55
74474;BME280;62922;-6.168;106.796;2023-06-04T02:35:47;101054.06;;;31.65;64.16
74474;BME280;62922;-6.168;106.796;2023-06-04T02:38:13;101056.56;;;31.66;64.12
74474;BME280;62922;-6.168;106.796;2023-06-04T02:40:39;101054.53;;;31.67;63.97
74474;BME280;62922;-6.168;106.796;2023-06-04T02:43:05;101048.59;;;31.68;64.02
74474;BME280;62922;-6.168;106.796;2023-06-04T02:45:32;101049.91;;;31.71;63.88
74474;BME280;62922;-6.168;106.796;2023-06-04T02:47:58;101045.09;;;31.71;63.84
74474;BME280;62922;-6.168;106.796;2023-06-04T02:50:24;101037.47;;;31.72;63.69
74474;BME280;62922;-6.168;106.796;2023-06-04T02:52:50;101036.28;;;31.73;63.18
74474;BME280;62922;-6.168;106.796;2023-06-04T02:55:16;101035.94;;;31.74;63.80
74474;BME280;62922;-6.168;106.796;2023-06-04T02:57:42;101036.44;;;31.76;63.77
74474;BME280;62922;-6.168;106.796;2023-06-04T03:00:08;101033.63;;;31.76;63.54
74474;BME280;62922;-6.168;106.796;2023-06-04T03:02:38;101033.28;;;31.78;63.55
74474;BME280;62922;-6.168;106.796;2023-06-04T03:05:04;101020.00;;;31.78;63.57
74474;BME280;62922;-6.168;106.796;2023-06-04T03:07:30;101024.50;;;31.79;63.48
74474;BME280;62922;-6.168;106.796;2023-06-04T03:09:56;101026.16;;;31.80;63.29
74474;BME280;62922;-6.168;106.796;2023-06-04T03:12:22;101019.34;;;31.81;63.46
74474;BME280;62922;-6.168;106.796;2023-06-04T03:14:48;101022.16;;;31.81;63.32
74474;BME280;62922;-6.168;106.796;2023-06-04T03:17:14;101022.66;;;31.83;63.21
74474;BME280;62922;-6.168;106.796;2023-06-04T03:19:41;101023.50;;;31.84;62.95
74474;BME280;62922;-6.168;106.796;2023-06-04T03:22:07;101014.69;;;31.85;63.19
74474;BME280;62922;-6.168;106.796;2023-06-04T03:24:34;101013.53;;;31.86;62.52
74474;BME280;62922;-6.168;106.796;2023-06-04T03:27:02;101006.72;;;31.87;62.79
74474;BME280;62922;-6.168;106.796;2023-06-04T03:29:28;101010.06;;;31.89;62.82
74474;BME280;62922;-6.168;106.796;2023-06-04T03:31:53;101001.25;;;31.91;62.64
74474;BME280;62922;-6.168;106.796;2023-06-04T03:34:19;101010.56;;;31.91;62.84
74474;BME280;62922;-6.168;106.796;2023-06-04T03:36:45;101005.41;;;31.93;62.71
74474;BME280;62922;-6.168;106.796;2023-06-04T03:39:11;101001.41;;;31.94;62.67
74474;BME280;62922;-6.168;106.796;2023-06-04T03:41:37;101005.06;;;31.95;62.15
74474;BME280;62922;-6.168;106.796;2023-06-04T03:44:03;101003.09;;;31.95;62.57
74474;BME280;62922;-6.168;106.796;2023-06-04T03:46:29;100999.09;;;31.96;62.45
74474;BME280;62922;-6.168;106.796;2023-06-04T03:48:58;100994.78;;;31.99;62.76
74474;BME280;62922;-6.168;106.796;2023-06-04T03:51:24;100996.41;;;32.00;61.98
74474;BME280;62922;-6.168;106.796;2023-06-04T03:53:50;100984.78;;;32.01;62.05
74474;BME280;62922;-6.168;106.796;2023-06-04T03:56:18;100981.97;;;32.01;62.52
74474;BME280;62922;-6.168;106.796;2023-06-04T03:58:45;100975.66;;;32.04;62.15
74474;BME280;62922;-6.168;106.796;2023-06-04T04:01:11;100968.84;;;32.05;62.28
74474;BME280;62922;-6.168;106.796;2023-06-04T04:03:39;100966.00;;;32.05;62.37
74474;BME280;62922;-6.168;106.796;2023-06-04T04:06:06;100969.00;;;32.09;62.48
74474;BME280;62922;-6.168;106.796;2023-06-04T04:08:31;100967.00;;;32.09;63.27
74474;BME280;62922;-6.168;106.796;2023-06-04T04:10:59;100963.84;;;32.11;63.23
74474;BME280;62922;-6.168;106.796;2023-06-04T04:13:28;100959.03;;;32.11;62.31
74474;BME280;62922;-6.168;106.796;2023-06-04T04:15:54;100952.19;;;32.12;62.54
74474;BME280;62922;-6.168;106.796;2023-06-04T04:18:20;100954.72;;;32.14;62.67
74474;BME280;62922;-6.168;106.796;2023-06-04T04:20:47;100960.84;;;32.16;62.23
74474;BME280;62922;-6.168;106.796;2023-06-04T04:23:13;100955.66;;;32.18;62.48
74474;BME280;62922;-6.168;106.796;2023-06-04T04:25:39;100948.88;;;32.19;62.35
74474;BME280;62922;-6.168;106.796;2023-06-04T04:28:04;100955.34;;;32.19;62.37
74474;BME280;62922;-6.168;106.796;2023-06-04T04:30:34;100947.38;;;32.21;63.01
74474;BME280;62922;-6.168;106.796;2023-06-04T04:33:01;100939.72;;;32.22;62.60
74474;BME280;62922;-6.168;106.796;2023-06-04T04:35:26;100943.03;;;32.24;62.61
74474;BME280;62922;-6.168;106.796;2023-06-04T04:37:54;100945.00;;;32.23;62.47
74474;BME280;62922;-6.168;106.796;2023-06-04T04:40:20;100947.19;;;32.26;63.07
74474;BME280;62922;-6.168;106.796;2023-06-04T04:42:46;100940.69;;;32.26;62.59
74474;BME280;62922;-6.168;106.796;2023-06-04T04:45:12;100929.88;;;32.28;63.19
74474;BME280;62922;-6.168;106.796;2023-06-04T04:47:38;100923.41;;;32.27;62.72
74474;BME280;62922;-6.168;106.796;2023-06-04T04:50:04;100916.59;;;32.28;62.32
74474;BME280;62922;-6.168;106.796;2023-06-04T04:52:30;100930.38;;;32.30;62.73
74474;BME280;62922;-6.168;106.796;2023-06-04T04:54:56;100928.03;;;32.32;62.10
74474;BME280;62922;-6.168;106.796;2023-06-04T04:57:23;100920.88;;;32.34;62.71
74474;BME280;62922;-6.168;106.796;2023-06-04T04:59:49;100918.03;;;32.34;62.25
74474;BME280;62922;-6.168;106.796;2023-06-04T05:02:15;100914.91;;;32.36;62.17
74474;BME280;62922;-6.168;106.796;2023-06-04T05:04:41;100921.38;;;32.36;62.17
74474;BME280;62922;-6.168;106.796;2023-06-04T05:07:07;100918.19;;;32.38;61.98
74474;BME280;62922;-6.168;106.796;2023-06-04T05:09:33;100914.22;;;32.39;62.43
74474;BME280;62922;-6.168;106.796;2023-06-04T05:11:59;100911.88;;;32.41;62.29
74474;BME280;62922;-6.168;106.796;2023-06-04T05:14:25;100918.06;;;32.43;61.99
74474;BME280;62922;-6.168;106.796;2023-06-04T05:16:52;100916.03;;;32.43;61.87
74474;BME280;62922;-6.168;106.796;2023-06-04T05:19:18;100910.38;;;32.43;61.74
74474;BME280;62922;-6.168;106.796;2023-06-04T05:21:45;100909.22;;;32.44;61.83
74474;BME280;62922;-6.168;106.796;2023-06-04T05:24:11;100896.75;;;32.45;62.06
74474;BME280;62922;-6.168;106.796;2023-06-04T05:26:36;100895.59;;;32.46;61.77
74474;BME280;62922;-6.168;106.796;2023-06-04T05:29:04;100894.41;;;32.47;61.53
74474;BME280;62922;-6.168;106.796;2023-06-04T05:31:30;100894.06;;;32.49;61.53
74474;BME280;62922;-6.168;106.796;2023-06-04T05:34:00;100888.09;;;32.50;61.23
74474;BME280;62922;-6.168;106.796;2023-06-04T05:36:29;100884.09;;;32.51;61.48
74474;BME280;62922;-6.168;106.796;2023-06-04T05:38:56;100877.25;;;32.52;61.51
74474;BME280;62922;-6.168;106.796;2023-06-04T05:41:23;100885.41;;;32.54;61.29
74474;BME280;62922;-6.168;106.796;2023-06-04T05:43:49;100884.22;;;32.55;61.36
74474;BME280;62922;-6.168;106.796;2023-06-04T05:46:15;100875.75;;;32.55;61.81
74474;BME280;62922;-6.168;106.796;2023-06-04T05:48:41;100875.41;;;32.56;61.75
74474;BME280;62922;-6.168;106.796;2023-06-04T05:51:07;100877.88;;;32.58;61.42
74474;BME280;62922;-6.168;106.796;2023-06-04T05:53:33;100874.75;;;32.60;61.52
74474;BME280;62922;-6.168;106.796;2023-06-04T05:55:59;100863.44;;;32.60;61.16
74474;BME280;62922;-6.168;106.796;2023-06-04T05:58:25;100867.91;;;32.61;61.27
74474;BME280;62922;-6.168;106.796;2023-06-04T06:00:51;100852.13;;;32.60;61.01
74474;BME280;62922;-6.168;106.796;2023-06-04T06:03:17;100859.44;;;32.61;60.83
74474;BME280;62922;-6.168;106.796;2023-06-04T06:05:43;100845.78;;;32.63;60.88
74474;BME280;62922;-6.168;106.796;2023-06-04T06:08:13;100849.94;;;32.65;61.12
74474;BME280;62922;-6.168;106.796;2023-06-04T06:10:39;100844.59;;;32.64;61.20
74474;BME280;62922;-6.168;106.796;2023-06-04T06:13:05;100835.81;;;32.65;60.54
74474;BME280;62922;-6.168;106.796;2023-06-04T06:15:31;100828.97;;;32.66;60.94
74474;BME280;62922;-6.168;106.796;2023-06-04T06:17:58;100825.00;;;32.67;60.37
74474;BME280;62922;-6.168;106.796;2023-06-04T06:20:24;100825.31;;;32.66;60.46
74474;BME280;62922;-6.168;106.796;2023-06-04T06:22:50;100817.31;;;32.68;60.97
74474;BME280;62922;-6.168;106.796;2023-06-04T06:25:16;100816.16;;;32.69;60.96
74474;BME280;62922;-6.168;106.796;2023-06-04T06:27:42;100818.16;;;32.68;60.98
74474;BME280;62922;-6.168;106.796;2023-06-04T06:30:08;100804.84;;;32.69;60.30
74474;BME280;62922;-6.168;106.796;2023-06-04T06:32:35;100804.16;;;32.72;60.32
74474;BME280;62922;-6.168;106.796;2023-06-04T06:35:01;100814.31;;;32.73;60.27
74474;BME280;62922;-6.168;106.796;2023-06-04T06:37:30;100803.00;;;32.73;60.08
74474;BME280;62922;-6.168;106.796;2023-06-04T06:39:55;100792.50;;;32.73;60.71
74474;BME280;62922;-6.168;106.796;2023-06-04T06:42:22;100777.22;;;32.74;59.90
74474;BME280;62922;-6.168;106.796;2023-06-04T06:44:48;100778.03;;;32.75;60.39
74474;BME280;62922;-6.168;106.796;2023-06-04T06:47:14;100776.38;;;32.74;59.66
74474;BME280;62922;-6.168;106.796;2023-06-04T06:49:40;100772.38;;;32.75;60.12
74474;BME280;62922;-6.168;106.796;2023-06-04T06:52:06;100765.56;;;32.76;60.03
74474;BME280;62922;-6.168;106.796;2023-06-04T06:54:32;100759.91;;;32.76;59.54
74474;BME280;62922;-6.168;106.796;2023-06-04T06:56:58;100761.53;;;32.77;59.76
74474;BME280;62922;-6.168;106.796;2023-06-04T06:59:24;100753.06;;;32.77;60.10
74474;BME280;62922;-6.168;106.796;2023-06-04T07:01:50;100747.91;;;32.79;59.84
74474;BME280;62922;-6.168;106.796;2023-06-04T07:04:16;100741.41;;;32.78;59.68
74474;BME280;62922;-6.168;106.796;2023-06-04T07:06:43;100726.94;;;32.80;59.62
74474;BME280;62922;-6.168;106.796;2023-06-04T07:09:09;100720.94;;;32.81;59.65
74474;BME280;62922;-6.168;106.796;2023-06-04T07:11:34;100720.13;;;32.81;59.78
74474;BME280;62922;-6.168;106.796;2023-06-04T07:14:01;100716.94;;;32.82;59.54
74474;BME280;62922;-6.168;106.796;2023-06-04T07:16:29;100722.59;;;32.82;59.60
74474;BME280;62922;-6.168;106.796;2023-06-04T07:18:58;100716.56;;;32.84;59.60
74474;BME280;62922;-6.168;106.796;2023-06-04T07:21:24;100721.44;;;32.83;59.71
74474;BME280;62922;-6.168;106.796;2023-06-04T07:23:50;100711.75;;;32.84;59.60
74474;BME280;62922;-6.168;106.796;2023-06-04T07:26:16;100714.59;;;32.84;59.77
74474;BME280;62922;-6.168;106.796;2023-06-04T07:28:43;100719.09;;;32.85;59.10
74474;BME280;62922;-6.168;106.796;2023-06-04T07:31:09;100702.94;;;32.86;59.08
74474;BME280;62922;-6.168;106.796;2023-06-04T07:33:35;100694.44;;;32.86;59.70
74474;BME280;62922;-6.168;106.796;2023-06-04T07:36:11;100692.94;;;32.88;59.34
74474;BME280;62922;-6.168;106.796;2023-06-04T07:38:39;100698.59;;;32.88;59.55
74474;BME280;62922;-6.168;106.796;2023-06-04T07:41:05;100697.41;;;32.89;59.56
74474;BME280;62922;-6.168;106.796;2023-06-04T07:43:33;100696.25;;;32.90;59.60
74474;BME280;62922;-6.168;106.796;2023-06-04T07:45:59;100699.91;;;32.91;59.05
74474;BME280;62922;-6.168;106.796;2023-06-04T07:48:25;100695.88;;;32.92;59.43
74474;BME280;62922;-6.168;106.796;2023-06-04T07:50:56;100697.06;;;32.91;59.32
74474;BME280;62922;-6.168;106.796;2023-06-04T07:53:25;100686.56;;;32.91;59.48
74474;BME280;62922;-6.168;106.796;2023-06-04T07:55:51;100690.22;;;32.92;59.07
74474;BME280;62922;-6.168;106.796;2023-06-04T07:58:17;100697.56;;;32.93;58.81
74474;BME280;62922;-6.168;106.796;2023-06-04T08:00:43;100703.22;;;32.93;59.43
74474;BME280;62922;-6.168;106.796;2023-06-04T08:03:09;100695.53;;;32.93;58.65
74474;BME280;62922;-6.168;106.796;2023-06-04T08:05:36;100693.56;;;32.94;59.03
74474;BME280;62922;-6.168;106.796;2023-06-04T08:08:02;100695.22;;;32.95;59.01
74474;BME280;62922;-6.168;106.796;2023-06-04T08:10:30;100693.22;;;32.95;59.09
74474;BME280;62922;-6.168;106.796;2023-06-04T08:12:56;100695.22;;;32.95;59.24
74474;BME280;62922;-6.168;106.796;2023-06-04T08:15:22;100696.88;;;32.96;58.86
74474;BME280;62922;-6.168;106.796;2023-06-04T08:17:48;100701.34;;;32.97;58.97
74474;BME280;62922;-6.168;106.796;2023-06-04T08:20:14;100686.41;;;32.96;59.14
74474;BME280;62922;-6.168;106.796;2023-06-04T08:22:40;100687.19;;;32.97;58.65
74474;BME280;62922;-6.168;106.796;2023-06-04T08:25:07;100690.88;;;32.97;59.10
74474;BME280;62922;-6.168;106.796;2023-06-04T08:27:34;100682.38;;;32.97;58.42
74474;BME280;62922;-6.168;106.796;2023-06-04T08:30:02;100686.03;;;32.98;58.41
74474;BME280;62922;-6.168;106.796;2023-06-04T08:32:28;100677.56;;;32.98;58.99
74474;BME280;62922;-6.168;106.796;2023-06-04T08:34:54;100689.72;;;32.98;59.09
74474;BME280;62922;-6.168;106.796;2023-06-04T08:37:20;100690.50;;;32.99;58.78
74474;BME280;62922;-6.168;106.796;2023-06-04T08:39:46;100692.53;;;32.98;58.88
74474;BME280;62922;-6.168;106.796;2023-06-04T08:42:15;100692.19;;;33.00;58.45
74474;BME280;62922;-6.168;106.796;2023-06-04T08:44:46;100692.19;;;33.00;58.34
74474;BME280;62922;-6.168;106.796;2023-06-04T08:47:19;100689.72;;;32.98;58.77
74474;BME280;62922;-6.168;106.796;2023-06-04T08:49:47;100690.50;;;32.99;58.27
74474;BME280;62922;-6.168;106.796;2023-06-04T08:52:14;100686.03;;;32.98;58.98
74474;BME280;62922;-6.168;106.796;2023-06-04T08:54:40;100681.22;;;32.98;58.46
74474;BME280;62922;-6.168;106.796;2023-06-04T08:57:06;100667.91;;;32.99;58.68
74474;BME280;62922;-6.168;106.796;2023-06-04T08:59:32;100676.38;;;32.99;58.05
74474;BME280;62922;-6.168;106.796;2023-06-04T09:01:58;100672.75;;;32.98;58.31
74474;BME280;62922;-6.168;106.796;2023-06-04T09:04:24;100673.53;;;32.99;58.11
74474;BME280;62922;-6.168;106.796;2023-06-04T09:06:51;100676.38;;;32.99;58.19
74474;BME280;62922;-6.168;106.796;2023-06-04T09:09:18;100680.03;;;32.99;58.24
74474;BME280;62922;-6.168;106.796;2023-06-04T09:11:46;100682.88;;;32.99;58.31
74474;BME280;62922;-6.168;106.796;2023-06-04T09:14:15;100687.31;;;33.00;58.54
74474;BME280;62922;-6.168;106.796;2023-06-04T09:16:44;100688.16;;;33.01;58.64
74474;BME280;62922;-6.168;106.796;2023-06-04T09:19:10;100695.81;;;33.00;58.09
74474;BME280;62922;-6.168;106.796;2023-06-04T09:21:45;100679.69;;;33.01;57.99
74474;BME280;62922;-6.168;106.796;2023-06-04T09:24:11;100683.69;;;33.00;58.09
74474;BME280;62922;-6.168;106.796;2023-06-04T09:26:37;100676.84;;;33.01;58.03
74474;BME280;62922;-6.168;106.796;2023-06-04T09:29:03;100686.16;;;33.01;58.39
74474;BME280;62922;-6.168;106.796;2023-06-04T09:31:31;100684.50;;;33.00;58.58
74474;BME280;62922;-6.168;106.796;2023-06-04T09:34:02;100685.34;;;33.01;58.30
74474;BME280;62922;-6.168;106.796;2023-06-04T09:36:32;100696.63;;;33.01;58.44
74474;BME280;62922;-6.168;106.796;2023-06-04T09:38:58;100692.97;;;33.00;58.24
74474;BME280;62922;-6.168;106.796;2023-06-04T09:41:24;100705.47;;;32.99;58.51
74474;BME280;62922;-6.168;106.796;2023-06-04T09:43:58;100701.47;;;33.00;58.58
74474;BME280;62922;-6.168;106.796;2023-06-04T09:46:25;100703.50;;;33.00;58.30
74474;BME280;62922;-6.168;106.796;2023-06-04T09:48:58;100699.47;;;33.01;57.91
74474;BME280;62922;-6.168;106.796;2023-06-04T09:51:24;100712.78;;;33.00;57.98
74474;BME280;62922;-6.168;106.796;2023-06-04T09:53:53;100719.25;;;33.01;58.10
74474;BME280;62922;-6.168;106.796;2023-06-04T09:56:20;100717.63;;;33.00;58.42
74474;BME280;62922;-6.168;106.796;2023-06-04T09:58:47;100718.78;;;32.99;58.39
74474;BME280;62922;-6.168;106.796;2023-06-04T10:01:14;100719.63;;;32.99;58.37
74474;BME280;62922;-6.168;106.796;2023-06-04T10:03:40;100723.97;;;32.97;57.60
74474;BME280;62922;-6.168;106.796;2023-06-04T10:06:15;100730.09;;;32.99;57.79
74474;BME280;62922;-6.168;106.796;2023-06-04T10:08:41;100737.41;;;33.00;58.32
74474;BME280;62922;-6.168;106.796;2023-06-04T10:11:08;100724.91;;;33.01;58.52
74474;BME280;62922;-6.168;106.796;2023-06-04T10:13:47;100732.56;;;33.00;58.67
74474;BME280;62922;-6.168;106.796;2023-06-04T10:16:13;100745.91;;;33.00;58.58
74474;BME280;62922;-6.168;106.796;2023-06-04T10:18:40;100744.22;;;32.99;58.82
74474;BME280;62922;-6.168;106.796;2023-06-04T10:21:06;100746.25;;;32.98;58.10
74474;BME280;62922;-6.168;106.796;2023-06-04T10:23:34;100740.59;;;32.98;57.94
74474;BME280;62922;-6.168;106.796;2023-06-04T10:26:03;100752.69;;;32.99;58.13
74474;BME280;62922;-6.168;106.796;2023-06-04T10:28:29;100752.22;;;32.97;58.43
74474;BME280;62922;-6.168;106.796;2023-06-04T10:30:55;100756.25;;;32.96;58.50
74474;BME280;62922;-6.168;106.796;2023-06-04T10:33:21;100763.06;;;32.95;58.85
74474;BME280;62922;-6.168;106.796;2023-06-04T10:35:53;100765.88;;;32.95;58.77
74474;BME280;62922;-6.168;106.796;2023-06-04T10:38:19;100759.41;;;32.94;58.88
74474;BME280;62922;-6.168;106.796;2023-06-04T10:40:47;100754.56;;;32.95;58.82
74474;BME280;62922;-6.168;106.796;2023-06-04T10:43:13;100750.09;;;32.94;58.91
74474;BME280;62922;-6.168;106.796;2023-06-04T10:45:41;100754.91;;;32.93;59.21
74474;BME280;62922;-6.168;106.796;2023-06-04T10:48:08;100764.25;;;32.94;59.21
74474;BME280;62922;-6.168;106.796;2023-06-04T10:50:35;100755.75;;;32.94;59.24
74474;BME280;62922;-6.168;106.796;2023-06-04T10:53:16;100761.41;;;32.94;59.47
74474;BME280;62922;-6.168;106.796;2023-06-04T10:55:44;100767.06;;;32.94;59.64
74474;BME280;62922;-6.168;106.796;2023-06-04T10:58:12;100759.75;;;32.93;59.63
74474;BME280;62922;-6.168;106.796;2023-06-04T11:00:39;100760.06;;;32.91;59.79
74474;BME280;62922;-6.168;106.796;2023-06-04T11:03:07;100760.06;;;32.91;59.95
74474;BME280;62922;-6.168;106.796;2023-06-04T11:05:37;100767.75;;;32.91;59.66
74474;BME280;62922;-6.168;106.796;2023-06-04T11:08:03;100768.53;;;32.91;59.65
74474;BME280;62922;-6.168;106.796;2023-06-04T11:10:33;100784.69;;;32.91;60.14
74474;BME280;62922;-6.168;106.796;2023-06-04T11:13:02;100794.34;;;32.90;60.17
74474;BME280;62922;-6.168;106.796;2023-06-04T11:17:58;100798.34;;;32.89;60.15
74474;BME280;62922;-6.168;106.796;2023-06-04T11:20:24;100808.00;;;32.88;59.94
74474;BME280;62922;-6.168;106.796;2023-06-04T11:22:53;100806.00;;;32.88;60.24
74474;BME280;62922;-6.168;106.796;2023-06-04T11:25:19;100805.50;;;32.86;59.64
74474;BME280;62922;-6.168;106.796;2023-06-04T11:27:48;100808.34;;;32.86;59.61
74474;BME280;62922;-6.168;106.796;2023-06-04T11:30:14;100812.34;;;32.85;59.86
74474;BME280;62922;-6.168;106.796;2023-06-04T11:32:41;100816.81;;;32.86;60.28
74474;BME280;62922;-6.168;106.796;2023-06-04T11:35:06;100816.00;;;32.86;59.49
74474;BME280;62922;-6.168;106.796;2023-06-04T11:37:33;100820.84;;;32.85;60.32
74474;BME280;62922;-6.168;106.796;2023-06-04T11:39:59;100824.47;;;32.86;59.78
74474;BME280;62922;-6.168;106.796;2023-06-04T11:42:28;100822.81;;;32.85;60.23
74474;BME280;62922;-6.168;106.796;2023-06-04T11:44:56;100823.19;;;32.83;60.54
74474;BME280;62922;-6.168;106.796;2023-06-04T11:47:22;100822.34;;;32.83;60.29
74474;BME280;62922;-6.168;106.796;2023-06-04T11:49:52;100828.00;;;32.83;60.54
74474;BME280;62922;-6.168;106.796;2023-06-04T11:52:19;100829.19;;;32.82;60.54
74474;BME280;62922;-6.168;106.796;2023-06-04T11:54:45;100831.66;;;32.83;61.03
74474;BME280;62922;-6.168;106.796;2023-06-04T11:57:11;100831.31;;;32.85;60.60
74474;BME280;62922;-6.168;106.796;2023-06-04T11:59:37;100824.81;;;32.84;60.46
74474;BME280;62922;-6.168;106.796;2023-06-04T12:02:03;100830.47;;;32.84;61.05
74474;BME280;62922;-6.168;106.796;2023-06-04T12:04:29;100830.47;;;32.84;60.58
74474;BME280;62922;-6.168;106.796;2023-06-04T12:06:57;100832.47;;;32.84;61.10
74474;BME280;62922;-6.168;106.796;2023-06-04T12:09:24;100843.78;;;32.84;61.77
74474;BME280;62922;-6.168;106.796;2023-06-04T12:12:00;100854.28;;;32.83;61.73
74474;BME280;62922;-6.168;106.796;2023-06-04T12:14:26;100855.06;;;32.84;61.75
74474;BME280;62922;-6.168;106.796;2023-06-04T12:19:23;100864.75;;;32.83;62.42
74474;BME280;62922;-6.168;106.796;2023-06-04T12:24:18;100871.84;;;32.89;64.17
74474;BME280;62922;-6.168;106.796;2023-06-04T12:26:43;100871.84;;;32.89;63.74
74474;BME280;62922;-6.168;106.796;2023-06-04T12:29:10;100875.84;;;32.88;64.39
74474;BME280;62922;-6.168;106.796;2023-06-04T12:31:37;100876.66;;;32.88;64.37
74474;BME280;62922;-6.168;106.796;2023-06-04T12:34:03;100881.84;;;32.86;63.84
74474;BME280;62922;-6.168;106.796;2023-06-04T12:36:29;100879.34;;;32.85;64.25
74474;BME280;62922;-6.168;106.796;2023-06-04T12:38:57;100887.84;;;32.85;64.17
74474;BME280;62922;-6.168;106.796;2023-06-04T12:41:23;100887.00;;;32.84;64.16